sensor_id;sensor_type;location;lat;lon;timestamp;pressure;altitude;pressure_sealevel;temperature;humidity
4767;BME280;2397;53.576;9.746;2023-03-21T00:00:28;101584.72;;;7.60;88.49
4767;BME280;2397;53.576;9.746;2023-03-21T00:02:55;101592.34;;;7.63;88.11
4767;BME280;2397;53.576;9.746;2023-03-21T00:05:22;101584.56;;;7.62;88.33
4767;BME280;2397;53.576;9.746;2023-03-21T00:07:48;101586.06;;;7.66;88.66
4767;BME280;2397;53.576;9.746;2023-03-21T00:10:15;101592.34;;;7.63;88.46
4767;BME280;2397;53.576;9.746;2023-03-21T00:12:55;101590.69;;;7.62;88.84
4767;BME280;2397;53.576;9.746;2023-03-21T00:15:24;101584.13;;;7.68;88.77
4767;BME280;2397;53.576;9.746;2023-03-21T00:18:03;101586.16;;;7.64;88.43
4767;BME280;2397;53.576;9.746;2023-03-21T00:20:30;101585.81;;;7.69;88.43
4767;BME280;2397;53.576;9.746;2023-03-21T00:23:00;101580.44;;;7.70;88.82
4767;BME280;2397;53.576;9.746;2023-03-21T00:25:27;101577.81;;;7.70;88.80
4767;BME280;2397;53.576;9.746;2023-03-21T00:27:53;101578.03;;;7.67;88.47
4767;BME280;2397;53.576;9.746;2023-03-21T00:30:33;101583.28;;;7.67;88.70
4767;BME280;2397;53.576;9.746;2023-03-21T00:33:00;101574.47;;;7.68;88.43
4767;BME280;2397;53.576;9.746;2023-03-21T00:35:37;101576.13;;;7.69;88.76
4767;BME280;2397;53.576;9.746;2023-03-21T00:38:25;101574.47;;;7.68;88.45
4767;BME280;2397;53.576;9.746;2023-03-21T00:40:51;101567.66;;;7.66;88.09
4767;BME280;2397;53.576;9.746;2023-03-21T00:43:18;101567.41;;;7.69;88.64
4767;BME280;2397;53.576;9.746;2023-03-21T00:45:49;101569.22;;;7.68;88.57
4767;BME280;2397;53.576;9.746;2023-03-21T00:48:17;101561.94;;;7.72;88.94
4767;BME280;2397;53.576;9.746;2023-03-21T00:50:45;101561.81;;;7.73;89.00
4767;BME280;2397;53.576;9.746;2023-03-21T00:53:14;101557.75;;;7.69;88.61
4767;BME280;2397;53.576;9.746;2023-03-21T00:55:40;101559.19;;;7.73;89.03
4767;BME280;2397;53.576;9.746;2023-03-21T00:58:07;101553.25;;;7.71;88.96
4767;BME280;2397;53.576;9.746;2023-03-21T01:00:34;101553.25;;;7.71;88.81
4767;BME280;2397;53.576;9.746;2023-03-21T01:03:04;101556.34;;;7.76;88.95
4767;BME280;2397;53.576;9.746;2023-03-21T01:05:49;101551.59;;;7.81;89.03
4767;BME280;2397;53.576;9.746;2023-03-21T01:08:37;101553.94;;;7.73;88.59
4767;BME280;2397;53.576;9.746;2023-03-21T01:11:19;101552.75;;;7.77;88.82
4767;BME280;2397;53.576;9.746;2023-03-21T01:13:46;101547.41;;;7.79;89.03
4767;BME280;2397;53.576;9.746;2023-03-21T01:16:23;101546.53;;;7.78;88.94
4767;BME280;2397;53.576;9.746;2023-03-21T01:18:51;101543.09;;;7.78;89.19
4767;BME280;2397;53.576;9.746;2023-03-21T01:21:18;101550.88;;;7.79;89.48
4767;BME280;2397;53.576;9.746;2023-03-21T01:23:45;101543.31;;;7.75;88.96
4767;BME280;2397;53.576;9.746;2023-03-21T01:26:12;101547.13;;;7.71;89.07
4767;BME280;2397;53.576;9.746;2023-03-21T01:28:40;101541.66;;;7.74;89.28
4767;BME280;2397;53.576;9.746;2023-03-21T01:31:09;101544.19;;;7.75;89.05
4767;BME280;2397;53.576;9.746;2023-03-21T01:33:36;101541.19;;;7.80;89.21
4767;BME280;2397;53.576;9.746;2023-03-21T01:36:03;101538.44;;;7.81;89.21
4767;BME280;2397;53.576;9.746;2023-03-21T01:38:40;101538.09;;;7.86;89.29
4767;BME280;2397;53.576;9.746;2023-03-21T01:41:14;101539.88;;;7.85;89.13
4767;BME280;2397;53.576;9.746;2023-03-21T01:43:47;101539.19;;;7.83;88.92
4767;BME280;2397;53.576;9.746;2023-03-21T01:46:28;101534.88;;;7.82;89.34
4767;BME280;2397;53.576;9.746;2023-03-21T01:49:34;101532.69;;;7.76;89.18
4767;BME280;2397;53.576;9.746;2023-03-21T01:52:13;101528.88;;;7.80;89.25
4767;BME280;2397;53.576;9.746;2023-03-21T01:55:01;101529.00;;;7.79;89.40
4767;BME280;2397;53.576;9.746;2023-03-21T01:57:40;101529.84;;;7.79;89.36
4767;BME280;2397;53.576;9.746;2023-03-21T02:00:30;101532.97;;;7.84;88.91
4767;BME280;2397;53.576;9.746;2023-03-21T02:03:12;101528.44;;;7.86;88.99
4767;BME280;2397;53.576;9.746;2023-03-21T02:06:15;101532.38;;;7.81;89.40
4767;BME280;2397;53.576;9.746;2023-03-21T02:08:47;101528.56;;;7.85;89.31
4767;BME280;2397;53.576;9.746;2023-03-21T02:11:15;101530.66;;;7.80;89.16
4767;BME280;2397;53.576;9.746;2023-03-21T02:13:42;101528.78;;;7.82;89.46
4767;BME280;2397;53.576;9.746;2023-03-21T02:16:39;101518.28;;;7.82;89.21
4767;BME280;2397;53.576;9.746;2023-03-21T02:25:18;101509.09;;;7.87;89.57
4767;BME280;2397;53.576;9.746;2023-03-21T02:30:54;101509.78;;;7.89;89.48
4767;BME280;2397;53.576;9.746;2023-03-21T02:33:40;101498.47;;;7.89;89.38
4767;BME280;2397;53.576;9.746;2023-03-21T02:39:14;101505.84;;;7.84;89.64
4767;BME280;2397;53.576;9.746;2023-03-21T02:42:05;101504.16;;;7.83;89.33
4767;BME280;2397;53.576;9.746;2023-03-21T02:44:40;101503.09;;;7.85;89.59
4767;BME280;2397;53.576;9.746;2023-03-21T02:47:25;101497.38;;;7.91;89.58
4767;BME280;2397;53.576;9.746;2023-03-21T02:50:09;101498.34;;;7.90;89.84
4767;BME280;2397;53.576;9.746;2023-03-21T02:52:38;101493.53;;;7.84;89.76
4767;BME280;2397;53.576;9.746;2023-03-21T02:55:21;101491.88;;;7.83;89.82
4767;BME280;2397;53.576;9.746;2023-03-21T02:57:55;101491.16;;;7.81;89.55
4767;BME280;2397;53.576;9.746;2023-03-21T03:00:28;101497.72;;;7.87;89.54
4767;BME280;2397;53.576;9.746;2023-03-21T03:02:57;101492.47;;;7.87;89.70
4767;BME280;2397;53.576;9.746;2023-03-21T03:05:47;101490.59;;;7.89;89.86
4767;BME280;2397;53.576;9.746;2023-03-21T03:17:11;101483.28;;;7.92;90.14
4767;BME280;2397;53.576;9.746;2023-03-21T03:20:07;101478.78;;;7.94;90.10
4767;BME280;2397;53.576;9.746;2023-03-21T03:22:53;101480.78;;;7.91;90.17
4767;BME280;2397;53.576;9.746;2023-03-21T03:25:28;101469.22;;;7.93;90.27
4767;BME280;2397;53.576;9.746;2023-03-21T03:28:08;101475.50;;;7.91;90.30
4767;BME280;2397;53.576;9.746;2023-03-21T03:30:35;101479.72;;;7.93;90.32
4767;BME280;2397;53.576;9.746;2023-03-21T03:33:12;101479.72;;;7.93;90.26
4767;BME280;2397;53.576;9.746;2023-03-21T03:35:43;101475.28;;;7.94;90.27
4767;BME280;2397;53.576;9.746;2023-03-21T03:38:17;101474.69;;;7.90;90.20
4767;BME280;2397;53.576;9.746;2023-03-21T03:40:53;101481.72;;;7.90;90.34
4767;BME280;2397;53.576;9.746;2023-03-21T03:43:49;101475.63;;;7.89;90.34
4767;BME280;2397;53.576;9.746;2023-03-21T03:46:31;101473.75;;;7.91;90.46
4767;BME280;2397;53.576;9.746;2023-03-21T03:49:13;101473.00;;;7.89;90.45
4767;BME280;2397;53.576;9.746;2023-03-21T03:54:30;101469.44;;;7.90;90.81
4767;BME280;2397;53.576;9.746;2023-03-21T03:57:01;101478.25;;;7.89;90.68
4767;BME280;2397;53.576;9.746;2023-03-21T03:59:29;101469.44;;;7.90;91.12
4767;BME280;2397;53.576;9.746;2023-03-21T04:02:15;101470.66;;;7.97;90.70
4767;BME280;2397;53.576;9.746;2023-03-21T04:04:42;101471.84;;;7.93;91.12
4767;BME280;2397;53.576;9.746;2023-03-21T04:07:09;101474.31;;;7.95;91.09
4767;BME280;2397;53.576;9.746;2023-03-21T04:09:37;101467.28;;;7.95;91.05
4767;BME280;2397;53.576;9.746;2023-03-21T04:12:13;101472.31;;;7.98;90.89
4767;BME280;2397;53.576;9.746;2023-03-21T04:14:44;101463.81;;;7.95;91.11
4767;BME280;2397;53.576;9.746;2023-03-21T04:17:15;101462.66;;;7.99;91.80
4767;BME280;2397;53.576;9.746;2023-03-21T04:19:42;101468.50;;;8.02;90.98
4767;BME280;2397;53.576;9.746;2023-03-21T04:22:08;101466.00;;;8.01;90.76
4767;BME280;2397;53.576;9.746;2023-03-21T04:24:38;101466.84;;;8.01;91.06
4767;BME280;2397;53.576;9.746;2023-03-21T04:27:05;101463.97;;;8.04;91.01
4767;BME280;2397;53.576;9.746;2023-03-21T04:29:40;101468.88;;;8.09;90.90
4767;BME280;2397;53.576;9.746;2023-03-21T04:32:22;101465.03;;;8.02;91.02
4767;BME280;2397;53.576;9.746;2023-03-21T04:34:57;101463.72;;;8.07;91.08
4767;BME280;2397;53.576;9.746;2023-03-21T04:37:24;101462.50;;;8.00;91.09
4767;BME280;2397;53.576;9.746;2023-03-21T04:39:51;101462.16;;;8.05;91.25
4767;BME280;2397;53.576;9.746;2023-03-21T04:42:19;101460.72;;;8.01;91.30
4767;BME280;2397;53.576;9.746;2023-03-21T04:44:47;101466.34;;;7.96;91.26
4767;BME280;2397;53.576;9.746;2023-03-21T04:47:14;101459.19;;;7.98;91.29
4767;BME280;2397;53.576;9.746;2023-03-21T04:49:42;101454.88;;;7.97;91.51
4767;BME280;2397;53.576;9.746;2023-03-21T04:52:10;101455.81;;;7.96;91.33
4767;BME280;2397;53.576;9.746;2023-03-21T04:54:36;101456.56;;;7.98;91.56
4767;BME280;2397;53.576;9.746;2023-03-21T04:57:03;101453.81;;;8.00;91.35
4767;BME280;2397;53.576;9.746;2023-03-21T04:59:30;101459.66;;;8.03;91.54
4767;BME280;2397;53.576;9.746;2023-03-21T05:01:57;101459.44;;;8.06;91.64
4767;BME280;2397;53.576;9.746;2023-03-21T05:04:25;101450.84;;;8.04;91.75
4767;BME280;2397;53.576;9.746;2023-03-21T05:06:53;101450.47;;;8.09;91.84
4767;BME280;2397;53.576;9.746;2023-03-21T05:09:20;101459.19;;;8.09;91.84
4767;BME280;2397;53.576;9.746;2023-03-21T05:11:48;101455.59;;;8.10;92.34
4767;BME280;2397;53.576;9.746;2023-03-21T05:14:20;101450.34;;;8.10;91.91
4767;BME280;2397;53.576;9.746;2023-03-21T05:16:47;101451.09;;;8.12;92.03
4767;BME280;2397;53.576;9.746;2023-03-21T05:19:20;101445.94;;;8.11;91.84
4767;BME280;2397;53.576;9.746;2023-03-21T05:21:49;101445.09;;;8.10;91.82
4767;BME280;2397;53.576;9.746;2023-03-21T05:24:20;101444.13;;;8.11;91.82
4767;BME280;2397;53.576;9.746;2023-03-21T05:26:48;101438.88;;;8.11;91.79
4767;BME280;2397;53.576;9.746;2023-03-21T05:29:23;101441.03;;;8.17;91.78
4767;BME280;2397;53.576;9.746;2023-03-21T05:31:56;101438.63;;;8.14;91.47
4767;BME280;2397;53.576;9.746;2023-03-21T05:34:23;101443.88;;;8.14;91.92
4767;BME280;2397;53.576;9.746;2023-03-21T05:36:49;101439.81;;;8.10;91.77
4767;BME280;2397;53.576;9.746;2023-03-21T05:39:16;101437.56;;;8.17;91.67
4767;BME280;2397;53.576;9.746;2023-03-21T05:41:54;101445.31;;;8.18;91.32
4767;BME280;2397;53.576;9.746;2023-03-21T05:44:22;101441.03;;;8.17;91.89
4767;BME280;2397;53.576;9.746;2023-03-21T05:46:48;101436.97;;;8.13;92.09
4767;BME280;2397;53.576;9.746;2023-03-21T05:49:16;101441.03;;;8.17;92.04
4767;BME280;2397;53.576;9.746;2023-03-21T05:51:43;101441.75;;;8.19;92.06
4767;BME280;2397;53.576;9.746;2023-03-21T05:54:11;101427.78;;;8.19;91.71
4767;BME280;2397;53.576;9.746;2023-03-21T05:56:44;101434.63;;;8.21;91.88
4767;BME280;2397;53.576;9.746;2023-03-21T05:59:18;101428.63;;;8.19;91.70
4767;BME280;2397;53.576;9.746;2023-03-21T06:01:45;101418.47;;;8.26;92.11
4767;BME280;2397;53.576;9.746;2023-03-21T06:04:14;101425.63;;;8.24;91.99
4767;BME280;2397;53.576;9.746;2023-03-21T06:06:41;101426.09;;;8.18;91.89
4767;BME280;2397;53.576;9.746;2023-03-21T06:09:08;101425.50;;;8.14;91.81
4767;BME280;2397;53.576;9.746;2023-03-21T06:11:36;101426.72;;;8.21;91.90
4767;BME280;2397;53.576;9.746;2023-03-21T06:14:18;101433.66;;;8.22;91.80
4767;BME280;2397;53.576;9.746;2023-03-21T06:16:52;101428.16;;;8.25;91.97
4767;BME280;2397;53.576;9.746;2023-03-21T06:19:19;101422.53;;;8.30;91.86
4767;BME280;2397;53.576;9.746;2023-03-21T06:22:00;101422.44;;;8.31;91.85
4767;BME280;2397;53.576;9.746;2023-03-21T06:24:26;101419.19;;;8.28;91.81
4767;BME280;2397;53.576;9.746;2023-03-21T06:26:53;101422.44;;;8.31;91.81
4767;BME280;2397;53.576;9.746;2023-03-21T06:29:20;101422.19;;;8.34;91.62
4767;BME280;2397;53.576;9.746;2023-03-21T06:31:48;101420.25;;;8.36;91.79
4767;BME280;2397;53.576;9.746;2023-03-21T06:34:15;101421.69;;;8.40;91.93
4767;BME280;2397;53.576;9.746;2023-03-21T06:36:42;101412.88;;;8.41;91.69
4767;BME280;2397;53.576;9.746;2023-03-21T06:39:11;101406.53;;;8.44;92.07
4767;BME280;2397;53.576;9.746;2023-03-21T06:41:39;101417.03;;;8.44;91.84
4767;BME280;2397;53.576;9.746;2023-03-21T06:44:06;101413.44;;;8.45;91.70
4767;BME280;2397;53.576;9.746;2023-03-21T06:46:40;101419.91;;;8.41;91.90
4767;BME280;2397;53.576;9.746;2023-03-21T06:49:07;101418.72;;;8.45;91.99
4767;BME280;2397;53.576;9.746;2023-03-21T06:51:34;101421.09;;;8.48;91.82
4767;BME280;2397;53.576;9.746;2023-03-21T06:54:08;101416.94;;;8.45;91.90
4767;BME280;2397;53.576;9.746;2023-03-21T06:56:44;101428.38;;;8.44;92.07
4767;BME280;2397;53.576;9.746;2023-03-21T06:59:18;101420.50;;;8.44;91.96
4767;BME280;2397;53.576;9.746;2023-03-21T07:01:51;101417.16;;;8.42;91.94
4767;BME280;2397;53.576;9.746;2023-03-21T07:04:18;101424.22;;;8.42;92.27
4767;BME280;2397;53.576;9.746;2023-03-21T07:06:44;101423.97;;;8.45;92.24
4767;BME280;2397;53.576;9.746;2023-03-21T07:09:11;101420.97;;;8.49;92.49
4767;BME280;2397;53.576;9.746;2023-03-21T07:11:38;101427.91;;;8.50;92.22
4767;BME280;2397;53.576;9.746;2023-03-21T07:14:04;101424.44;;;8.50;92.36
4767;BME280;2397;53.576;9.746;2023-03-21T07:16:31;101423.72;;;8.48;92.53
4767;BME280;2397;53.576;9.746;2023-03-21T07:18:58;101431.13;;;8.54;92.25
4767;BME280;2397;53.576;9.746;2023-03-21T07:21:24;101424.94;;;8.55;92.31
4767;BME280;2397;53.576;9.746;2023-03-21T07:23:52;101424.94;;;8.55;92.51
4767;BME280;2397;53.576;9.746;2023-03-21T07:26:18;101421.69;;;8.51;92.11
4767;BME280;2397;53.576;9.746;2023-03-21T07:28:45;101424.94;;;8.55;92.34
4767;BME280;2397;53.576;9.746;2023-03-21T07:31:14;101426.94;;;8.51;92.38
4767;BME280;2397;53.576;9.746;2023-03-21T07:33:41;101423.00;;;8.57;92.34
4767;BME280;2397;53.576;9.746;2023-03-21T07:36:11;101433.41;;;8.58;92.62
4767;BME280;2397;53.576;9.746;2023-03-21T07:38:38;101426.59;;;8.56;92.62
4767;BME280;2397;53.576;9.746;2023-03-21T07:41:06;101428.13;;;8.58;92.40
4767;BME280;2397;53.576;9.746;2023-03-21T07:43:33;101421.09;;;8.59;92.48
4767;BME280;2397;53.576;9.746;2023-03-21T07:46:04;101423.47;;;8.62;92.65
4767;BME280;2397;53.576;9.746;2023-03-21T07:48:31;101425.75;;;8.55;92.48
4767;BME280;2397;53.576;9.746;2023-03-21T07:50:59;101423.84;;;8.57;92.94
4767;BME280;2397;53.576;9.746;2023-03-21T07:53:27;101424.53;;;8.59;92.63
4767;BME280;2397;53.576;9.746;2023-03-21T07:55:55;101426.47;;;8.68;92.35
4767;BME280;2397;53.576;9.746;2023-03-21T07:58:23;101422.03;;;8.69;92.10
4767;BME280;2397;53.576;9.746;2023-03-21T08:00:51;101419.53;;;8.67;92.62
4767;BME280;2397;53.576;9.746;2023-03-21T08:03:18;101411.75;;;8.66;92.58
4767;BME280;2397;53.576;9.746;2023-03-21T08:05:45;101418.56;;;8.68;92.50
4767;BME280;2397;53.576;9.746;2023-03-21T08:08:11;101417.59;;;8.69;92.47
4767;BME280;2397;53.576;9.746;2023-03-21T08:10:38;101415.19;;;8.66;92.40
4767;BME280;2397;53.576;9.746;2023-03-21T08:13:05;101421.41;;;8.76;92.42
4767;BME280;2397;53.576;9.746;2023-03-21T08:15:31;101418.31;;;8.71;93.06
4767;BME280;2397;53.576;9.746;2023-03-21T08:17:58;101412.09;;;8.72;92.38
4767;BME280;2397;53.576;9.746;2023-03-21T08:20:25;101420.00;;;8.72;92.53
4767;BME280;2397;53.576;9.746;2023-03-21T08:22:52;101416.28;;;8.75;92.34
4767;BME280;2397;53.576;9.746;2023-03-21T08:25:20;101414.47;;;8.75;92.48
4767;BME280;2397;53.576;9.746;2023-03-21T08:27:48;101420.19;;;8.80;92.51
4767;BME280;2397;53.576;9.746;2023-03-21T08:30:20;101421.38;;;8.87;92.59
4767;BME280;2397;53.576;9.746;2023-03-21T08:32:46;101419.22;;;8.81;92.60
4767;BME280;2397;53.576;9.746;2023-03-21T08:35:15;101411.81;;;8.86;92.54
4767;BME280;2397;53.576;9.746;2023-03-21T08:37:42;101412.53;;;8.88;92.33
4767;BME280;2397;53.576;9.746;2023-03-21T08:40:14;101417.19;;;8.96;92.08
4767;BME280;2397;53.576;9.746;2023-03-21T08:42:42;101416.69;;;8.91;92.26
4767;BME280;2397;53.576;9.746;2023-03-21T08:45:11;101408.69;;;8.92;91.88
4767;BME280;2397;53.576;9.746;2023-03-21T08:47:38;101409.72;;;9.01;92.26
4767;BME280;2397;53.576;9.746;2023-03-21T08:50:06;101406.75;;;9.05;91.89
4767;BME280;2397;53.576;9.746;2023-03-21T08:52:34;101410.47;;;9.03;91.78
4767;BME280;2397;53.576;9.746;2023-03-21T08:55:00;101414.16;;;9.11;91.67
4767;BME280;2397;53.576;9.746;2023-03-21T08:57:28;101417.47;;;9.13;91.83
4767;BME280;2397;53.576;9.746;2023-03-21T08:59:55;101416.91;;;9.10;91.57
4767;BME280;2397;53.576;9.746;2023-03-21T09:02:22;101414.63;;;9.05;91.71
4767;BME280;2397;53.576;9.746;2023-03-21T09:04:48;101415.09;;;9.10;91.88
4767;BME280;2397;53.576;9.746;2023-03-21T09:07:15;101408.72;;;9.13;91.51
4767;BME280;2397;53.576;9.746;2023-03-21T09:09:42;101410.53;;;9.12;91.26
4767;BME280;2397;53.576;9.746;2023-03-21T09:12:10;101407.06;;;9.12;91.72
4767;BME280;2397;53.576;9.746;2023-03-21T09:14:36;101409.31;;;9.16;91.27
4767;BME280;2397;53.576;9.746;2023-03-21T09:17:02;101404.31;;;9.13;91.47
4767;BME280;2397;53.576;9.746;2023-03-21T09:19:29;101408.72;;;9.13;91.50
4767;BME280;2397;53.576;9.746;2023-03-21T09:21:57;101401.06;;;9.21;91.44
4767;BME280;2397;53.576;9.746;2023-03-21T09:24:23;101405.09;;;9.25;91.48
4767;BME280;2397;53.576;9.746;2023-03-21T09:26:51;101396.97;;;9.28;91.15
4767;BME280;2397;53.576;9.746;2023-03-21T09:29:18;101397.41;;;9.33;91.15
4767;BME280;2397;53.576;9.746;2023-03-21T09:31:46;101407.34;;;9.29;91.11
4767;BME280;2397;53.576;9.746;2023-03-21T09:34:13;101404.81;;;9.39;91.27
4767;BME280;2397;53.576;9.746;2023-03-21T09:36:42;101400.59;;;9.36;90.94
4767;BME280;2397;53.576;9.746;2023-03-21T09:39:14;101402.31;;;9.37;90.88
4767;BME280;2397;53.576;9.746;2023-03-21T09:42:03;101404.53;;;9.42;91.43
4767;BME280;2397;53.576;9.746;2023-03-21T09:45:04;101406.59;;;9.38;91.72
4767;BME280;2397;53.576;9.746;2023-03-21T09:47:43;101402.75;;;9.42;91.75
4767;BME280;2397;53.576;9.746;2023-03-21T09:50:25;101407.03;;;9.43;91.33
4767;BME280;2397;53.576;9.746;2023-03-21T09:53:14;101406.41;;;9.51;91.92
4767;BME280;2397;53.576;9.746;2023-03-21T09:55:44;101402.50;;;9.45;91.66
4767;BME280;2397;53.576;9.746;2023-03-21T10:00:48;101399.19;;;9.53;91.76
4767;BME280;2397;53.576;9.746;2023-03-21T10:03:24;101396.69;;;9.51;91.94
4767;BME280;2397;53.576;9.746;2023-03-21T10:05:55;101401.41;;;9.48;91.61
4767;BME280;2397;53.576;9.746;2023-03-21T10:08:27;101400.31;;;9.50;91.78
4767;BME280;2397;53.576;9.746;2023-03-21T10:10:59;101397.22;;;9.45;92.37
4767;BME280;2397;53.576;9.746;2023-03-21T10:13:31;101403.91;;;9.49;92.06
4767;BME280;2397;53.576;9.746;2023-03-21T10:16:21;101394.34;;;9.48;92.30
4767;BME280;2397;53.576;9.746;2023-03-21T10:18:50;101400.31;;;9.50;92.54
4767;BME280;2397;53.576;9.746;2023-03-21T10:21:23;101390.78;;;9.59;92.39
4767;BME280;2397;53.576;9.746;2023-03-21T10:24:16;101391.91;;;9.56;92.55
4767;BME280;2397;53.576;9.746;2023-03-21T10:26:44;101384.44;;;9.61;92.68
4767;BME280;2397;53.576;9.746;2023-03-21T10:29:14;101388.72;;;9.62;92.43
4767;BME280;2397;53.576;9.746;2023-03-21T10:31:43;101388.28;;;9.57;92.28
4767;BME280;2397;53.576;9.746;2023-03-21T10:34:32;101388.16;;;9.59;92.18
4767;BME280;2397;53.576;9.746;2023-03-21T10:37:02;101384.56;;;9.60;92.68
4767;BME280;2397;53.576;9.746;2023-03-21T10:39:36;101382.03;;;9.58;92.56
4767;BME280;2397;53.576;9.746;2023-03-21T10:42:04;101381.22;;;9.58;92.96
4767;BME280;2397;53.576;9.746;2023-03-21T10:44:33;101376.34;;;9.53;92.82
4767;BME280;2397;53.576;9.746;2023-03-21T10:47:09;101377.75;;;9.57;92.91
4767;BME280;2397;53.576;9.746;2023-03-21T10:49:37;101369.28;;;9.54;92.34
4767;BME280;2397;53.576;9.746;2023-03-21T10:52:26;101371.38;;;9.60;92.52
4767;BME280;2397;53.576;9.746;2023-03-21T10:55:15;101369.59;;;9.60;92.90
4767;BME280;2397;53.576;9.746;2023-03-21T10:57:45;101373.44;;;9.56;92.97
4767;BME280;2397;53.576;9.746;2023-03-21T11:00:19;101368.06;;;9.58;92.76
4767;BME280;2397;53.576;9.746;2023-03-21T11:02:48;101368.53;;;9.72;92.65
4767;BME280;2397;53.576;9.746;2023-03-21T11:07:46;101370.06;;;9.75;92.58
4767;BME280;2397;53.576;9.746;2023-03-21T11:10:30;101363.28;;;9.72;92.45
4767;BME280;2397;53.576;9.746;2023-03-21T11:13:02;101352.53;;;9.64;92.56
4767;BME280;2397;53.576;9.746;2023-03-21T11:15:47;101359.78;;;9.72;92.91
4767;BME280;2397;53.576;9.746;2023-03-21T11:18:22;101348.84;;;9.76;92.53
4767;BME280;2397;53.576;9.746;2023-03-21T11:20:51;101350.81;;;9.74;92.71
4767;BME280;2397;53.576;9.746;2023-03-21T11:23:19;101348.44;;;9.71;92.46
4767;BME280;2397;53.576;9.746;2023-03-21T11:25:48;101352.47;;;9.75;92.57
4767;BME280;2397;53.576;9.746;2023-03-21T11:28:22;101346.94;;;9.78;92.60
4767;BME280;2397;53.576;9.746;2023-03-21T11:30:54;101347.50;;;9.82;92.49
4767;BME280;2397;53.576;9.746;2023-03-21T11:33:26;101343.84;;;9.73;92.56
4767;BME280;2397;53.576;9.746;2023-03-21T11:36:04;101346.09;;;9.78;92.87
4767;BME280;2397;53.576;9.746;2023-03-21T11:38:36;101345.78;;;9.71;92.49
4767;BME280;2397;53.576;9.746;2023-03-21T11:41:03;101339.03;;;9.78;92.72
4767;BME280;2397;53.576;9.746;2023-03-21T11:43:35;101342.47;;;9.79;92.54
4767;BME280;2397;53.576;9.746;2023-03-21T11:46:13;101331.94;;;9.79;92.73
4767;BME280;2397;53.576;9.746;2023-03-21T11:48:42;101328.63;;;9.77;92.46
4767;BME280;2397;53.576;9.746;2023-03-21T11:51:38;101335.00;;;9.74;92.80
4767;BME280;2397;53.576;9.746;2023-03-21T11:54:14;101330.56;;;9.84;92.99
4767;BME280;2397;53.576;9.746;2023-03-21T11:56:50;101322.88;;;9.92;92.42
4767;BME280;2397;53.576;9.746;2023-03-21T11:59:47;101322.88;;;9.92;92.32
4767;BME280;2397;53.576;9.746;2023-03-21T12:02:38;101320.63;;;9.88;92.52
4767;BME280;2397;53.576;9.746;2023-03-21T12:05:16;101318.28;;;9.94;91.89
4767;BME280;2397;53.576;9.746;2023-03-21T12:10:36;101309.84;;;10.00;91.97
4767;BME280;2397;53.576;9.746;2023-03-21T12:16:24;101309.31;;;10.06;92.17
4767;BME280;2397;53.576;9.746;2023-03-21T12:21:45;101305.97;;;10.04;91.66
4767;BME280;2397;53.576;9.746;2023-03-21T12:24:24;101299.31;;;10.00;91.57
4767;BME280;2397;53.576;9.746;2023-03-21T12:27:03;101300.97;;;10.01;91.60
4767;BME280;2397;53.576;9.746;2023-03-21T12:29:54;101289.00;;;9.97;91.85
4767;BME280;2397;53.576;9.746;2023-03-21T12:32:37;101288.00;;;9.89;91.38
4767;BME280;2397;53.576;9.746;2023-03-21T12:35:17;101289.53;;;9.91;91.76
4767;BME280;2397;53.576;9.746;2023-03-21T12:40:58;101288.72;;;9.91;91.92
4767;BME280;2397;53.576;9.746;2023-03-21T12:43:38;101283.75;;;9.97;91.83
4767;BME280;2397;53.576;9.746;2023-03-21T12:46:16;101282.88;;;9.87;92.28
4767;BME280;2397;53.576;9.746;2023-03-21T12:48:49;101279.44;;;9.96;92.08
4767;BME280;2397;53.576;9.746;2023-03-21T12:51:21;101267.66;;;10.00;92.02
4767;BME280;2397;53.576;9.746;2023-03-21T12:53:55;101270.97;;;10.02;91.82
4767;BME280;2397;53.576;9.746;2023-03-21T12:56:30;101268.47;;;10.01;91.51
4767;BME280;2397;53.576;9.746;2023-03-21T12:59:05;101269.31;;;10.01;91.76
4767;BME280;2397;53.576;9.746;2023-03-21T13:01:35;101264.31;;;9.98;91.76
4767;BME280;2397;53.576;9.746;2023-03-21T13:04:15;101260.44;;;10.02;91.25
4767;BME280;2397;53.576;9.746;2023-03-21T13:06:47;101252.78;;;9.99;91.30
4767;BME280;2397;53.576;9.746;2023-03-21T13:09:23;101251.19;;;10.08;91.59
4767;BME280;2397;53.576;9.746;2023-03-21T13:12:12;101254.41;;;10.11;91.84
4767;BME280;2397;53.576;9.746;2023-03-21T13:14:51;101247.72;;;10.07;91.39
4767;BME280;2397;53.576;9.746;2023-03-21T13:17:27;101243.00;;;10.11;91.11
4767;BME280;2397;53.576;9.746;2023-03-21T13:20:13;101247.09;;;10.04;91.36
4767;BME280;2397;53.576;9.746;2023-03-21T13:22:41;101242.69;;;10.04;91.42
4767;BME280;2397;53.576;9.746;2023-03-21T13:25:23;101239.94;;;10.06;91.04
4767;BME280;2397;53.576;9.746;2023-03-21T13:27:59;101241.34;;;10.10;90.63
4767;BME280;2397;53.576;9.746;2023-03-21T13:30:28;101236.88;;;10.10;91.08
4767;BME280;2397;53.576;9.746;2023-03-21T13:33:13;101235.38;;;10.17;91.01
4767;BME280;2397;53.576;9.746;2023-03-21T13:35:43;101231.78;;;10.18;90.45
4767;BME280;2397;53.576;9.746;2023-03-21T13:38:13;101236.50;;;10.24;90.79
4767;BME280;2397;53.576;9.746;2023-03-21T13:40:48;101233.31;;;10.21;90.24
4767;BME280;2397;53.576;9.746;2023-03-21T13:43:50;101232.72;;;10.17;89.76
4767;BME280;2397;53.576;9.746;2023-03-21T13:54:03;101228.56;;;10.15;90.29
4767;BME280;2397;53.576;9.746;2023-03-21T13:59:35;101221.63;;;10.14;90.66
4767;BME280;2397;53.576;9.746;2023-03-21T14:02:27;101224.94;;;10.06;90.41
4767;BME280;2397;53.576;9.746;2023-03-21T14:04:59;101218.59;;;10.09;90.74
4767;BME280;2397;53.576;9.746;2023-03-21T14:07:40;101221.34;;;10.07;90.66
4767;BME280;2397;53.576;9.746;2023-03-21T14:10:18;101215.94;;;10.09;90.70
4767;BME280;2397;53.576;9.746;2023-03-21T14:12:46;101209.13;;;10.06;91.24
4767;BME280;2397;53.576;9.746;2023-03-21T14:15:18;101209.13;;;10.06;90.61
4767;BME280;2397;53.576;9.746;2023-03-21T14:17:52;101210.19;;;10.04;90.76
4767;BME280;2397;53.576;9.746;2023-03-21T14:20:26;101204.69;;;10.07;90.73
4767;BME280;2397;53.576;9.746;2023-03-21T14:22:53;101197.75;;;10.06;91.32
4767;BME280;2397;53.576;9.746;2023-03-21T14:25:21;101210.19;;;10.04;90.93
4767;BME280;2397;53.576;9.746;2023-03-21T14:27:56;101200.75;;;10.01;90.71
4767;BME280;2397;53.576;9.746;2023-03-21T14:33:23;101196.84;;;9.96;91.30
4767;BME280;2397;53.576;9.746;2023-03-21T14:35:53;101196.31;;;10.02;91.28
4767;BME280;2397;53.576;9.746;2023-03-21T14:38:23;101193.69;;;10.02;91.12
4767;BME280;2397;53.576;9.746;2023-03-21T14:40:54;101190.22;;;10.01;91.67
4767;BME280;2397;53.576;9.746;2023-03-21T14:43:22;101183.97;;;10.02;91.26